createdAt,value
2023-03-25T00:00:17.458Z,71.69
2023-03-25T00:02:49.288Z,73.42
2023-03-25T00:05:19.193Z,71.83
2023-03-25T00:07:48.315Z,75.40
2023-03-25T00:10:15.522Z,74.61
2023-03-25T00:12:45.318Z,76.86
2023-03-25T00:15:12.944Z,78.09
2023-03-25T00:17:39.699Z,78.31
2023-03-25T00:20:11.598Z,79.88
2023-03-25T00:22:42.059Z,81.27
2023-03-25T00:25:10.984Z,80.97
2023-03-25T00:27:38.305Z,80.15
2023-03-25T00:30:05.635Z,81.20
2023-03-25T00:32:33.074Z,80.59
2023-03-25T00:34:59.812Z,80.83
2023-03-25T00:37:27.145Z,79.92
2023-03-25T00:39:54.139Z,79.39
2023-03-25T00:42:26.397Z,77.64
2023-03-25T00:44:53.931Z,78.26
2023-03-25T00:47:22.823Z,78.14
2023-03-25T00:49:50.691Z,78.92
2023-03-25T00:52:18.285Z,80.05
2023-03-25T00:54:45.855Z,78.49
2023-03-25T00:57:12.727Z,78.84
2023-03-25T00:59:39.508Z,79.64
2023-03-25T01:02:07.076Z,80.26
2023-03-25T01:04:34.983Z,78.72
2023-03-25T01:07:03.340Z,79.38
2023-03-25T01:09:31.120Z,78.83
2023-03-25T01:11:58.640Z,79.24
2023-03-25T01:14:27.597Z,77.53
2023-03-25T01:16:54.823Z,78.28
2023-03-25T01:19:22.911Z,77.66
2023-03-25T01:21:49.766Z,78.24
2023-03-25T01:24:16.719Z,78.16
2023-03-25T01:26:45.809Z,78.22
2023-03-25T01:29:15.470Z,77.89
2023-03-25T01:31:42.446Z,78.45
2023-03-25T01:34:10.708Z,78.61
2023-03-25T01:36:39.724Z,78.12
2023-03-25T01:39:08.479Z,78.08
2023-03-25T01:41:46.851Z,77.81
2023-03-25T01:44:19.242Z,79.00
2023-03-25T01:46:49.274Z,77.76
2023-03-25T01:49:30.057Z,77.99
2023-03-25T01:52:03.091Z,77.68
2023-03-25T01:54:30.765Z,78.24
2023-03-25T01:56:58.082Z,78.27
2023-03-25T01:59:28.128Z,78.53
2023-03-25T02:02:02.397Z,77.93
2023-03-25T02:04:39.047Z,77.48
2023-03-25T02:07:08.656Z,78.06
2023-03-25T02:09:36.462Z,78.01
2023-03-25T02:12:06.562Z,78.67
2023-03-25T02:14:36.828Z,78.19
2023-03-25T02:17:40.206Z,78.44
2023-03-25T02:20:16.162Z,77.62
2023-03-25T02:22:49.841Z,78.02
2023-03-25T02:25:35.502Z,78.57
2023-03-25T02:28:35.707Z,77.76
2023-03-25T02:31:39.240Z,77.31
2023-03-25T02:34:15.328Z,77.57
2023-03-25T02:37:11.576Z,77.74
2023-03-25T02:40:11.706Z,77.01
2023-03-25T02:42:47.227Z,76.58
2023-03-25T02:45:37.903Z,76.85
2023-03-25T02:48:15.793Z,76.70
2023-03-25T02:50:48.682Z,76.63
2023-03-25T02:53:22.851Z,77.28
2023-03-25T02:55:52.905Z,75.47
2023-03-25T02:58:21.708Z,75.64
2023-03-25T03:00:50.406Z,75.86
2023-03-25T03:03:17.533Z,75.17
2023-03-25T03:05:47.947Z,76.32
2023-03-25T03:08:35.470Z,76.26
2023-03-25T03:11:39.896Z,76.34
2023-03-25T03:14:18.794Z,76.57
2023-03-25T03:17:20.197Z,80.37
2023-03-25T03:19:56.912Z,81.66
2023-03-25T03:22:30.095Z,81.58
2023-03-25T03:25:01.920Z,83.28
2023-03-25T03:27:43.004Z,82.39
2023-03-25T03:30:15.889Z,83.48
2023-03-25T03:33:04.866Z,83.49
2023-03-25T03:35:38.339Z,84.32
2023-03-25T03:38:11.387Z,84.45
2023-03-25T03:40:44.614Z,84.31
2023-03-25T03:43:19.749Z,84.26
2023-03-25T03:45:51.759Z,84.30
2023-03-25T03:48:42.428Z,84.41
2023-03-25T03:51:18.439Z,85.62
2023-03-25T03:53:58.240Z,83.97
2023-03-25T03:56:32.242Z,82.90
2023-03-25T03:59:02.382Z,82.79
2023-03-25T04:01:45.926Z,81.83
2023-03-25T04:04:23.837Z,81.61
2023-03-25T04:07:15.206Z,81.89
2023-03-25T04:10:06.155Z,80.95
2023-03-25T04:12:38.678Z,80.62
2023-03-25T04:15:06.721Z,81.00
2023-03-25T04:17:33.428Z,81.39
2023-03-25T04:20:01.592Z,81.19
2023-03-25T04:22:28.319Z,81.12
2023-03-25T04:24:56.122Z,79.87
2023-03-25T04:27:29.843Z,81.02
2023-03-25T04:29:57.635Z,81.06
2023-03-25T04:32:27.766Z,81.06
2023-03-25T04:34:57.795Z,81.04
2023-03-25T04:37:25.707Z,80.72
2023-03-25T04:39:53.903Z,80.46
2023-03-25T04:42:20.744Z,79.83
2023-03-25T04:44:47.491Z,79.70
2023-03-25T04:47:16.316Z,78.85
2023-03-25T04:49:45.122Z,78.74
2023-03-25T04:52:12.240Z,77.72
2023-03-25T04:54:40.156Z,78.58
2023-03-25T04:57:10.156Z,78.23
2023-03-25T04:59:37.247Z,78.29
2023-03-25T05:02:13.194Z,78.37
2023-03-25T05:04:47.249Z,77.21
2023-03-25T05:07:16.477Z,77.45
2023-03-25T05:09:43.427Z,77.72
2023-03-25T05:12:11.386Z,77.47
2023-03-25T05:14:38.357Z,77.03
2023-03-25T05:17:05.144Z,77.14
2023-03-25T05:19:34.933Z,76.17
2023-03-25T05:22:04.478Z,75.76
2023-03-25T05:24:31.303Z,76.13
2023-03-25T05:26:57.925Z,75.01
2023-03-25T05:29:24.598Z,75.55
2023-03-25T05:31:51.391Z,75.24
2023-03-25T05:34:18.255Z,75.50
2023-03-25T05:36:45.218Z,75.27
2023-03-25T05:39:12.278Z,75.10
2023-03-25T05:41:39.362Z,74.41
2023-03-25T05:44:07.862Z,74.93
2023-03-25T05:46:34.951Z,74.93
2023-03-25T05:49:01.928Z,75.07
2023-03-25T05:51:33.557Z,75.50
2023-03-25T05:54:01.600Z,75.17
2023-03-25T05:56:29.295Z,75.54
2023-03-25T05:58:57.430Z,74.35
2023-03-25T06:01:32.707Z,74.82
2023-03-25T06:04:01.552Z,73.87
2023-03-25T06:06:29.218Z,73.71
2023-03-25T06:08:56.012Z,73.65
2023-03-25T06:11:22.690Z,73.54
2023-03-25T06:13:52.528Z,73.70
2023-03-25T06:16:21.825Z,74.38
2023-03-25T06:18:51.118Z,75.52
2023-03-25T06:21:20.694Z,76.23
2023-03-25T06:23:50.679Z,75.16
2023-03-25T06:26:18.427Z,75.87
2023-03-25T06:28:45.970Z,75.94
2023-03-25T06:31:17.625Z,75.51
2023-03-25T06:33:46.136Z,74.52
2023-03-25T06:36:20.909Z,74.35
2023-03-25T06:38:50.444Z,74.54
2023-03-25T06:41:20.446Z,75.17
2023-03-25T06:43:53.693Z,74.90
2023-03-25T06:46:39.208Z,75.92
2023-03-25T06:49:12.180Z,75.49
2023-03-25T06:51:38.940Z,75.18
2023-03-25T06:54:05.682Z,74.76
2023-03-25T06:56:32.792Z,75.55
2023-03-25T06:58:59.440Z,74.79
2023-03-25T07:01:26.195Z,74.30
2023-03-25T07:03:52.857Z,74.39
2023-03-25T07:06:22.400Z,74.01
2023-03-25T07:08:49.632Z,73.53
2023-03-25T07:11:19.898Z,73.93
2023-03-25T07:13:46.590Z,75.01
2023-03-25T07:16:14.639Z,74.58
2023-03-25T07:18:41.454Z,75.66
2023-03-25T07:21:08.136Z,75.63
2023-03-25T07:23:34.826Z,73.62
2023-03-25T07:26:01.505Z,73.52
2023-03-25T07:28:28.128Z,73.14
2023-03-25T07:30:54.926Z,72.24
2023-03-25T07:33:21.801Z,72.26
2023-03-25T07:35:48.758Z,73.72
2023-03-25T07:38:15.586Z,73.56
2023-03-25T07:40:42.472Z,73.15
2023-03-25T07:43:09.075Z,72.03
2023-03-25T07:46:05.021Z,72.58
2023-03-25T07:48:32.032Z,72.16
2023-03-25T07:50:58.845Z,71.82
2023-03-25T07:53:25.517Z,72.47
2023-03-25T07:55:52.501Z,73.08
2023-03-25T07:58:19.696Z,70.38
2023-03-25T08:00:46.363Z,66.54
2023-03-25T08:03:13.834Z,63.62
2023-03-25T08:05:47.836Z,62.70
2023-03-25T08:08:15.370Z,65.16
2023-03-25T08:10:43.832Z,64.98
2023-03-25T08:13:10.797Z,65.68
2023-03-25T08:15:37.815Z,66.04
2023-03-25T08:18:06.388Z,67.87
2023-03-25T08:20:36.323Z,67.33
2023-03-25T08:23:03.224Z,67.45
2023-03-25T08:25:31.035Z,66.39
2023-03-25T08:27:57.860Z,66.48
2023-03-25T08:30:24.635Z,66.30
2023-03-25T08:32:54.626Z,63.76
2023-03-25T08:35:23.678Z,63.40
2023-03-25T08:37:51.494Z,65.33
2023-03-25T08:40:18.484Z,66.35
2023-03-25T08:42:46.466Z,65.87
2023-03-25T08:45:15.229Z,65.68
2023-03-25T08:47:43.754Z,65.24
2023-03-25T08:50:10.696Z,63.85
2023-03-25T08:52:37.404Z,64.34
2023-03-25T08:55:08.700Z,63.39
2023-03-25T08:57:37.735Z,63.31
2023-03-25T09:00:14.560Z,62.79
2023-03-25T09:02:42.387Z,62.81
2023-03-25T09:05:10.762Z,61.43
2023-03-25T09:07:39.024Z,61.75
2023-03-25T09:10:06.497Z,61.94
2023-03-25T09:12:33.685Z,62.61
2023-03-25T09:15:00.400Z,64.84
2023-03-25T09:17:27.423Z,63.58
2023-03-25T09:19:55.447Z,62.74
2023-03-25T09:22:23.080Z,62.52
2023-03-25T09:24:49.690Z,61.81
2023-03-25T09:27:16.378Z,61.50
2023-03-25T09:29:43.056Z,61.68
2023-03-25T09:32:09.882Z,66.04
2023-03-25T09:34:38.081Z,69.43
2023-03-25T09:37:05.325Z,69.86
2023-03-25T09:39:32.083Z,71.30
2023-03-25T09:42:12.437Z,70.62
2023-03-25T09:44:54.584Z,69.76
2023-03-25T09:47:23.609Z,68.92
2023-03-25T09:49:55.399Z,70.25
2023-03-25T09:52:33.157Z,69.32
2023-03-25T09:55:05.888Z,70.06
2023-03-25T09:57:45.883Z,70.00
2023-03-25T10:00:19.078Z,69.17
2023-03-25T10:02:45.784Z,68.96
2023-03-25T10:05:39.827Z,73.46
2023-03-25T10:08:26.335Z,73.34
2023-03-25T10:11:05.053Z,74.25
2023-03-25T10:13:56.446Z,76.49
2023-03-25T10:16:33.753Z,75.81
2023-03-25T10:19:21.482Z,72.67
2023-03-25T10:21:52.554Z,65.97
2023-03-25T10:24:44.241Z,60.29
2023-03-25T10:27:22.117Z,58.92
2023-03-25T10:30:00.726Z,56.33
2023-03-25T10:32:38.398Z,56.72
2023-03-25T10:35:09.430Z,58.63
2023-03-25T10:37:41.894Z,60.41
2023-03-25T10:40:15.489Z,61.48
2023-03-25T10:43:05.281Z,59.90
2023-03-25T10:45:34.064Z,58.81
2023-03-25T10:48:28.605Z,53.86
2023-03-25T10:51:19.940Z,55.07
2023-03-25T10:53:52.961Z,56.71
2023-03-25T10:56:31.293Z,56.94
2023-03-25T10:59:03.129Z,56.05
2023-03-25T11:01:41.364Z,60.65
2023-03-25T11:04:12.831Z,67.76
2023-03-25T11:06:42.209Z,66.98
2023-03-25T11:09:19.283Z,66.17
2023-03-25T11:11:47.233Z,55.99
2023-03-25T11:14:13.910Z,52.65
2023-03-25T11:16:52.332Z,44.45
2023-03-25T11:19:42.091Z,42.40
2023-03-25T11:22:18.637Z,39.98
2023-03-25T11:24:50.568Z,37.79
2023-03-25T11:27:22.526Z,38.64
2023-03-25T11:29:55.581Z,41.49
2023-03-25T11:32:38.477Z,45.46
2023-03-25T11:35:27.350Z,43.99
2023-03-25T11:37:57.551Z,42.08
2023-03-25T11:40:25.633Z,39.25
2023-03-25T11:42:55.740Z,39.59
2023-03-25T11:45:27.637Z,39.61
2023-03-25T11:47:59.966Z,41.49
2023-03-25T11:50:29.432Z,43.51
2023-03-25T11:53:00.230Z,43.46
2023-03-25T11:55:30.635Z,41.91
2023-03-25T11:58:00.418Z,39.81
2023-03-25T12:00:27.478Z,39.63
2023-03-25T12:03:16.258Z,36.54
2023-03-25T12:06:00.380Z,36.31
2023-03-25T12:08:42.564Z,37.96
2023-03-25T12:11:48.186Z,39.38
2023-03-25T12:14:30.320Z,40.72
2023-03-25T12:17:11.795Z,41.34
2023-03-25T12:19:56.468Z,41.16
2023-03-25T12:22:47.728Z,39.25
2023-03-25T12:25:23.605Z,39.63
2023-03-25T12:28:06.176Z,39.08
2023-03-25T12:30:51.785Z,38.67
2023-03-25T12:33:41.975Z,38.63
2023-03-25T12:36:48.074Z,37.59
2023-03-25T12:39:32.281Z,37.56
2023-03-25T12:42:51.572Z,38.21
2023-03-25T12:45:50.880Z,39.40
2023-03-25T12:48:35.719Z,39.90
2023-03-25T12:51:28.490Z,39.37
2023-03-25T12:54:37.047Z,40.62
2023-03-25T12:57:22.640Z,40.09
2023-03-25T13:00:20.184Z,40.52
2023-03-25T13:03:05.119Z,40.93
2023-03-25T13:05:44.896Z,40.83
2023-03-25T13:08:22.255Z,40.21
2023-03-25T13:10:58.288Z,39.14
2023-03-25T13:13:28.449Z,39.85
2023-03-25T13:16:23.668Z,39.92
2023-03-25T13:18:53.490Z,38.69
2023-03-25T13:21:24.543Z,39.33
2023-03-25T13:24:10.974Z,38.75
2023-03-25T13:26:42.763Z,38.22
2023-03-25T13:29:36.549Z,38.08
2023-03-25T13:32:10.016Z,38.18
2023-03-25T13:34:50.051Z,37.96
2023-03-25T13:37:23.271Z,36.95
2023-03-25T13:39:56.360Z,36.46
2023-03-25T13:42:31.681Z,36.94
2023-03-25T13:44:59.197Z,37.33
2023-03-25T13:47:33.813Z,36.91
2023-03-25T13:50:05.922Z,36.96
2023-03-25T13:52:39.768Z,35.88
2023-03-25T13:55:16.907Z,36.01
2023-03-25T13:58:18.448Z,35.72
2023-03-25T14:01:00.532Z,36.02
2023-03-25T14:03:58.522Z,36.37
2023-03-25T14:07:03.394Z,36.13
2023-03-25T14:09:48.625Z,35.65
2023-03-25T14:12:37.598Z,36.33
2023-03-25T14:15:15.238Z,37.02
2023-03-25T14:17:46.735Z,37.04
2023-03-25T14:20:24.460Z,37.69
2023-03-25T14:22:57.330Z,38.79
2023-03-25T14:25:57.388Z,39.90
2023-03-25T14:28:40.985Z,40.02
2023-03-25T14:31:13.760Z,40.51
2023-03-25T14:34:02.193Z,38.85
2023-03-25T14:36:31.332Z,37.59
2023-03-25T14:38:59.570Z,38.25
2023-03-25T14:42:00.463Z,38.81
2023-03-25T14:44:32.693Z,39.39
2023-03-25T14:47:25.564Z,39.67
2023-03-25T14:50:20.542Z,40.12
2023-03-25T14:52:54.849Z,38.96
2023-03-25T14:55:30.973Z,38.03
2023-03-25T14:58:27.662Z,38.17
2023-03-25T15:01:06.134Z,38.74
2023-03-25T15:03:44.009Z,39.69
2023-03-25T15:06:16.417Z,39.86
2023-03-25T15:08:53.938Z,39.81
2023-03-25T15:11:33.492Z,40.04
2023-03-25T15:14:07.702Z,40.08
2023-03-25T15:16:54.565Z,41.32
2023-03-25T15:19:23.144Z,40.69
2023-03-25T15:22:00.306Z,41.96
2023-03-25T15:24:35.419Z,42.44
2023-03-25T15:27:09.986Z,42.75
2023-03-25T15:29:53.089Z,43.20
2023-03-25T15:32:26.215Z,43.47
2023-03-25T15:35:23.009Z,44.50
2023-03-25T15:38:04.869Z,44.92
2023-03-25T15:40:51.966Z,45.49
2023-03-25T15:44:00.664Z,46.52
2023-03-25T15:46:50.098Z,47.19
2023-03-25T15:49:53.991Z,48.01
2023-03-25T15:52:48.563Z,48.30
2023-03-25T15:55:39.503Z,46.93
2023-03-25T15:58:13.924Z,47.90
2023-03-25T16:00:52.130Z,47.25
2023-03-25T16:03:27.047Z,47.74
2023-03-25T16:06:00.583Z,48.34
2023-03-25T16:08:32.711Z,48.53
2023-03-25T16:11:20.983Z,49.27
2023-03-25T16:14:00.904Z,49.40
2023-03-25T16:16:29.502Z,49.65
2023-03-25T16:18:56.508Z,50.54
2023-03-25T16:21:23.145Z,50.20
2023-03-25T16:23:53.234Z,50.47
2023-03-25T16:26:36.551Z,50.54
2023-03-25T16:29:13.292Z,50.82
2023-03-25T16:31:42.868Z,50.37
2023-03-25T16:34:15.242Z,52.25
2023-03-25T16:36:52.649Z,53.29
2023-03-25T16:39:21.376Z,55.25
2023-03-25T16:41:49.997Z,64.59
2023-03-25T16:44:22.640Z,73.53
2023-03-25T16:46:52.305Z,75.28
2023-03-25T16:49:38.276Z,74.31
2023-03-25T16:52:14.174Z,77.52
2023-03-25T16:54:47.299Z,76.34
2023-03-25T16:57:20.218Z,78.13
2023-03-25T16:59:47.632Z,78.42
2023-03-25T17:02:26.348Z,78.01
2023-03-25T17:04:55.864Z,78.05
2023-03-25T17:07:28.288Z,76.87
2023-03-25T17:09:58.133Z,77.13
2023-03-25T17:12:27.313Z,78.72
2023-03-25T17:15:06.854Z,76.61
2023-03-25T17:17:41.992Z,74.91
2023-03-25T17:20:17.981Z,74.99
2023-03-25T17:22:59.466Z,76.45
2023-03-25T17:25:34.992Z,73.95
2023-03-25T17:28:39.339Z,73.98
2023-03-25T17:31:25.082Z,73.46
2023-03-25T17:34:06.337Z,73.69
2023-03-25T17:36:36.284Z,73.88
2023-03-25T17:39:06.352Z,73.54
2023-03-25T17:41:38.483Z,74.46
2023-03-25T17:44:06.234Z,73.78
2023-03-25T17:46:35.028Z,73.51
2023-03-25T17:49:02.004Z,72.50
2023-03-25T17:51:30.633Z,72.26
2023-03-25T17:53:57.645Z,72.05
2023-03-25T17:56:27.823Z,72.29
2023-03-25T17:59:00.246Z,73.74
2023-03-25T18:01:28.014Z,74.70
2023-03-25T18:03:54.997Z,73.48
2023-03-25T18:06:22.490Z,75.50
2023-03-25T18:08:49.489Z,76.82
2023-03-25T18:11:16.316Z,76.41
2023-03-25T18:13:48.029Z,74.49
2023-03-25T18:16:21.068Z,75.26
2023-03-25T18:18:48.430Z,72.53
2023-03-25T18:21:16.870Z,71.24
2023-03-25T18:23:47.630Z,71.41
2023-03-25T18:26:18.798Z,72.93
2023-03-25T18:28:46.273Z,71.76
2023-03-25T18:31:18.480Z,74.20
2023-03-25T18:33:48.236Z,76.11
2023-03-25T18:36:15.418Z,76.28
2023-03-25T18:38:43.487Z,76.41
2023-03-25T18:41:11.633Z,75.65
2023-03-25T18:43:38.279Z,74.00
2023-03-25T18:46:05.206Z,75.49
2023-03-25T18:48:32.097Z,75.78
2023-03-25T18:51:00.817Z,74.32
2023-03-25T18:53:29.435Z,74.86
2023-03-25T18:56:00.955Z,74.61
2023-03-25T18:58:31.071Z,75.47
2023-03-25T19:00:59.138Z,78.14
2023-03-25T19:03:38.785Z,78.42
2023-03-25T19:06:09.601Z,79.43
2023-03-25T19:08:36.924Z,77.24
2023-03-25T19:11:19.199Z,75.92
2023-03-25T19:13:48.564Z,75.53
2023-03-25T19:16:15.532Z,75.82
2023-03-25T19:18:42.244Z,76.28
2023-03-25T19:21:10.462Z,76.97
2023-03-25T19:23:37.615Z,77.48
2023-03-25T19:26:04.542Z,76.83
2023-03-25T19:28:31.336Z,76.77
2023-03-25T19:31:00.505Z,77.46
2023-03-25T19:33:31.155Z,76.76
2023-03-25T19:36:01.252Z,76.58
2023-03-25T19:38:30.123Z,76.16
2023-03-25T19:41:02.918Z,76.27
2023-03-25T19:43:29.681Z,76.62
2023-03-25T19:45:57.363Z,76.29
2023-03-25T19:48:24.112Z,76.09
2023-03-25T19:50:54.182Z,76.14
2023-03-25T19:53:21.366Z,76.76
2023-03-25T19:55:48.372Z,76.87
2023-03-25T19:58:15.092Z,76.85
2023-03-25T20:00:42.110Z,76.93
2023-03-25T20:03:08.860Z,76.75
2023-03-25T20:05:36.699Z,76.64
2023-03-25T20:08:04.258Z,76.58
2023-03-25T20:10:31.525Z,76.75
2023-03-25T20:12:59.951Z,76.53
2023-03-25T20:15:27.207Z,75.96
2023-03-25T20:17:55.512Z,76.71
2023-03-25T20:20:24.751Z,75.12
2023-03-25T20:22:51.999Z,74.58
2023-03-25T20:25:19.320Z,74.81
2023-03-25T20:27:46.282Z,75.25
2023-03-25T20:30:15.937Z,75.21
2023-03-25T20:32:44.998Z,75.00
2023-03-25T20:35:15.061Z,74.03
2023-03-25T20:37:43.232Z,74.34
2023-03-25T20:40:15.292Z,74.33
2023-03-25T20:42:43.648Z,73.70
2023-03-25T20:45:13.676Z,73.90
2023-03-25T20:47:41.611Z,74.01
2023-03-25T20:50:11.264Z,73.22
2023-03-25T20:52:38.060Z,72.98
2023-03-25T20:55:05.752Z,72.56
2023-03-25T20:57:32.926Z,71.94
2023-03-25T20:59:59.577Z,72.12
2023-03-25T21:02:27.047Z,72.69
2023-03-25T21:04:56.768Z,73.10
2023-03-25T21:07:31.609Z,72.47
2023-03-25T21:09:58.852Z,73.26
2023-03-25T21:12:36.321Z,73.37
2023-03-25T21:15:09.174Z,73.14
2023-03-25T21:17:37.047Z,73.35
2023-03-25T21:20:07.742Z,72.92
2023-03-25T21:22:34.994Z,72.27
2023-03-25T21:25:01.681Z,72.61
2023-03-25T21:27:39.561Z,72.47
2023-03-25T21:30:09.522Z,74.00
2023-03-25T21:32:39.666Z,73.11
2023-03-25T21:35:07.818Z,74.00
2023-03-25T21:37:37.887Z,75.72
2023-03-25T21:40:08.395Z,75.80
2023-03-25T21:42:38.197Z,76.09
2023-03-25T21:45:07.550Z,75.25
2023-03-25T21:47:35.943Z,75.22
2023-03-25T21:50:06.122Z,74.48
2023-03-25T21:52:32.900Z,74.31
2023-03-25T21:54:59.521Z,74.49
2023-03-25T21:57:26.601Z,74.81
2023-03-25T21:59:56.202Z,73.83
2023-03-25T22:02:23.041Z,74.90
2023-03-25T22:04:49.770Z,75.68
2023-03-25T22:07:16.420Z,75.41
2023-03-25T22:09:43.251Z,75.46
2023-03-25T22:12:09.886Z,76.49
2023-03-25T22:14:36.748Z,76.08
2023-03-25T22:17:03.553Z,76.74
2023-03-25T22:19:31.247Z,76.35
2023-03-25T22:21:57.979Z,76.18
2023-03-25T22:24:24.647Z,77.01
2023-03-25T22:26:51.398Z,76.34
2023-03-25T22:29:18.018Z,76.84
2023-03-25T22:31:44.659Z,77.01
2023-03-25T22:34:14.973Z,77.19
2023-03-25T22:36:49.382Z,76.86
2023-03-25T22:39:18.311Z,76.50
2023-03-25T22:41:46.055Z,76.81
2023-03-25T22:44:14.874Z,76.37
2023-03-25T22:46:41.707Z,76.04
2023-03-25T22:49:08.371Z,75.86
2023-03-25T22:51:35.336Z,75.71
2023-03-25T22:54:02.027Z,75.41
2023-03-25T22:56:33.686Z,74.95
2023-03-25T22:59:01.773Z,74.78
2023-03-25T23:01:29.121Z,74.59
2023-03-25T23:03:57.463Z,73.36
2023-03-25T23:06:25.553Z,73.38
2023-03-25T23:08:55.245Z,73.25
2023-03-25T23:11:25.329Z,73.08
2023-03-25T23:14:05.910Z,73.07
2023-03-25T23:16:36.759Z,73.44
2023-03-25T23:19:06.619Z,72.93
2023-03-25T23:21:34.406Z,73.01
2023-03-25T23:24:03.223Z,72.43
2023-03-25T23:26:37.323Z,72.48
2023-03-25T23:29:05.993Z,72.30
2023-03-25T23:31:34.471Z,73.16
2023-03-25T23:34:04.132Z,72.76
2023-03-25T23:36:34.094Z,71.75
2023-03-25T23:39:02.100Z,72.54
2023-03-25T23:41:29.428Z,72.82
2023-03-25T23:43:56.193Z,72.57
2023-03-25T23:46:24.436Z,72.20
2023-03-25T23:48:54.700Z,71.67
2023-03-25T23:51:25.332Z,71.70
2023-03-25T23:53:52.967Z,71.37
2023-03-25T23:56:22.024Z,71.54
2023-03-25T23:58:49.125Z,71.63
